createdAt,value
2018-05-29T00:01:47.358Z,40.80
2018-05-29T00:04:15.780Z,41.15
2018-05-29T00:06:44.963Z,41.33
2018-05-29T00:09:14.514Z,41.35
2018-05-29T00:11:43.537Z,42.17
2018-05-29T00:14:11.851Z,44.55
2018-05-29T00:16:41.932Z,44.90
2018-05-29T00:19:10.193Z,45.10
2018-05-29T00:21:38.484Z,43.50
2018-05-29T00:24:07.527Z,45.35
2018-05-29T00:26:35.771Z,43.65
2018-05-29T00:29:04.034Z,42.17
2018-05-29T00:31:32.269Z,45.20
2018-05-29T00:34:00.604Z,44.47
2018-05-29T00:36:31.196Z,44.00
2018-05-29T00:38:59.469Z,40.70
2018-05-29T00:41:27.755Z,41.58
2018-05-29T00:43:56.026Z,41.55
2018-05-29T00:46:24.338Z,42.77
2018-05-29T00:48:52.657Z,41.13
2018-05-29T00:51:20.948Z,47.42
2018-05-29T00:53:49.237Z,39.85
2018-05-29T00:56:18.721Z,39.88
2018-05-29T00:58:47.749Z,39.93
2018-05-29T01:01:16.031Z,39.17
2018-05-29T01:03:45.135Z,37.97
2018-05-29T01:06:13.449Z,37.72
2018-05-29T01:08:41.769Z,38.25
2018-05-29T01:11:10.992Z,38.65
2018-05-29T01:13:39.271Z,39.35
2018-05-29T01:16:07.576Z,37.60
2018-05-29T01:18:35.830Z,38.55
2018-05-29T01:21:04.919Z,36.63
2018-05-29T01:23:33.218Z,37.53
2018-05-29T01:26:02.283Z,35.17
2018-05-29T01:28:30.558Z,36.97
2018-05-29T01:30:58.841Z,36.50
2018-05-29T01:33:27.143Z,37.38
2018-05-29T01:35:56.160Z,35.70
2018-05-29T01:38:24.443Z,37.13
2018-05-29T01:40:52.751Z,34.77
2018-05-29T01:43:21.106Z,36.05
2018-05-29T01:45:49.396Z,34.40
2018-05-29T01:48:17.648Z,32.70
2018-05-29T01:50:47.068Z,35.33
2018-05-29T01:53:16.105Z,33.92
2018-05-29T01:55:45.147Z,34.00
2018-05-29T01:58:13.425Z,32.70
2018-05-29T02:00:41.842Z,36.65
2018-05-29T02:03:10.115Z,34.42
2018-05-29T02:05:38.400Z,33.33
2018-05-29T02:08:07.446Z,34.25
2018-05-29T02:10:37.112Z,34.53
2018-05-29T02:13:05.373Z,34.53
2018-05-29T02:15:33.663Z,33.38
2018-05-29T02:18:02.744Z,33.08
2018-05-29T02:20:32.241Z,32.25
2018-05-29T02:23:00.530Z,32.45
2018-05-29T02:25:30.004Z,33.67
2018-05-29T02:27:59.466Z,32.35
2018-05-29T02:30:28.514Z,31.60
2018-05-29T02:32:56.806Z,32.33
2018-05-29T02:35:25.072Z,33.25
2018-05-29T02:37:53.451Z,32.17
2018-05-29T02:40:21.729Z,32.08
2018-05-29T02:42:50.022Z,32.25
2018-05-29T02:45:19.041Z,32.55
2018-05-29T02:47:48.748Z,32.05
2018-05-29T02:50:17.803Z,32.60
2018-05-29T02:52:46.084Z,30.65
2018-05-29T02:55:15.108Z,29.83
2018-05-29T02:57:43.409Z,31.00
2018-05-29T03:00:12.868Z,32.78
2018-05-29T03:02:41.145Z,32.10
2018-05-29T03:05:10.219Z,31.92
2018-05-29T03:07:38.459Z,31.47
2018-05-29T03:10:06.751Z,33.20
2018-05-29T03:12:35.047Z,33.83
2018-05-29T03:15:03.329Z,36.80
2018-05-29T03:17:31.600Z,38.57
2018-05-29T03:20:00.739Z,38.58
2018-05-29T03:22:29.735Z,40.17
2018-05-29T03:24:58.016Z,40.42
2018-05-29T03:27:27.064Z,42.58
2018-05-29T03:29:56.295Z,41.83
2018-05-29T03:32:25.358Z,41.92
2018-05-29T03:34:53.661Z,41.75
2018-05-29T03:37:22.798Z,41.50
2018-05-29T03:39:51.202Z,41.95
2018-05-29T03:42:19.491Z,41.95
2018-05-29T03:44:48.634Z,40.33
2018-05-29T03:47:16.958Z,38.72
2018-05-29T03:49:45.223Z,37.92
2018-05-29T03:52:15.959Z,36.58
2018-05-29T03:54:44.233Z,34.58
2018-05-29T03:57:12.561Z,37.65
2018-05-29T03:59:40.812Z,36.65
2018-05-29T04:02:09.822Z,32.97
2018-05-29T04:04:38.160Z,35.30
2018-05-29T04:07:06.442Z,32.78
2018-05-29T04:09:34.740Z,33.97
2018-05-29T04:12:03.800Z,33.28
2018-05-29T04:14:32.084Z,33.33
2018-05-29T04:17:00.416Z,31.08
2018-05-29T04:19:29.553Z,33.30
2018-05-29T04:21:57.858Z,31.85
2018-05-29T04:24:26.904Z,29.67
2018-05-29T04:26:56.451Z,30.30
2018-05-29T04:29:25.593Z,31.95
2018-05-29T04:31:54.670Z,28.67
2018-05-29T04:34:22.975Z,29.70
2018-05-29T04:36:51.252Z,27.65
2018-05-29T04:39:19.523Z,26.62
2018-05-29T04:41:47.843Z,26.02
2018-05-29T04:44:16.130Z,25.27
2018-05-29T04:46:45.312Z,22.90
2018-05-29T04:49:15.623Z,24.05
2018-05-29T04:51:43.868Z,22.85
2018-05-29T04:54:12.151Z,22.02
2018-05-29T04:56:40.488Z,21.60
2018-05-29T04:59:08.723Z,20.83
2018-05-29T05:01:37.381Z,21.05
2018-05-29T05:04:05.693Z,20.10
2018-05-29T05:06:36.051Z,21.80
2018-05-29T05:09:04.391Z,19.65
2018-05-29T05:11:32.664Z,19.27
2018-05-29T05:14:00.976Z,18.37
2018-05-29T05:16:30.022Z,18.48
2018-05-29T05:18:58.294Z,18.02
2018-05-29T05:21:26.585Z,18.20
2018-05-29T05:23:54.891Z,17.00
2018-05-29T05:26:23.960Z,17.67
2018-05-29T05:28:52.301Z,15.80
2018-05-29T05:31:20.651Z,17.10
2018-05-29T05:33:49.701Z,15.60
2018-05-29T05:36:18.025Z,16.27
2018-05-29T05:38:47.033Z,14.07
2018-05-29T05:41:15.359Z,14.52
2018-05-29T05:43:45.130Z,15.23
2018-05-29T05:46:13.438Z,13.90
2018-05-29T05:48:41.736Z,15.77
2018-05-29T05:51:10.025Z,15.43
2018-05-29T05:53:39.125Z,14.77
2018-05-29T05:56:08.950Z,13.27
2018-05-29T05:58:37.990Z,12.74
2018-05-29T06:01:06.322Z,13.07
2018-05-29T06:03:34.686Z,12.90
2018-05-29T06:06:06.546Z,12.77
2018-05-29T06:08:34.887Z,13.32
2018-05-29T06:11:03.160Z,12.63
2018-05-29T06:13:31.480Z,12.75
2018-05-29T06:16:00.563Z,12.37
2018-05-29T06:18:28.795Z,12.13
2018-05-29T06:20:57.056Z,12.15
2018-05-29T06:23:25.384Z,12.35
2018-05-29T06:25:53.771Z,11.20
2018-05-29T06:28:23.334Z,11.25
2018-05-29T06:30:51.565Z,11.40
2018-05-29T06:33:20.651Z,11.88
2018-05-29T06:35:49.775Z,13.70
2018-05-29T06:38:18.145Z,12.95
2018-05-29T06:40:46.353Z,10.20
2018-05-29T06:43:14.801Z,11.43
2018-05-29T06:45:43.249Z,10.30
2018-05-29T06:48:11.534Z,10.50
2018-05-29T06:50:39.869Z,10.85
2018-05-29T06:53:09.027Z,10.27
2018-05-29T06:55:38.093Z,10.88
2018-05-29T06:58:06.488Z,12.13
2018-05-29T07:00:36.673Z,10.98
2018-05-29T07:03:04.974Z,10.32
2018-05-29T07:05:33.236Z,12.68
2018-05-29T07:08:01.500Z,11.15
2018-05-29T07:10:31.931Z,12.23
2018-05-29T07:13:00.198Z,11.93
2018-05-29T07:15:28.489Z,11.30
2018-05-29T07:17:56.790Z,10.82
2018-05-29T07:20:25.916Z,10.38
2018-05-29T07:22:54.974Z,12.00
2018-05-29T07:25:24.114Z,11.73
2018-05-29T07:27:52.372Z,11.30
2018-05-29T07:30:20.746Z,11.07
2018-05-29T07:32:49.786Z,10.38
2018-05-29T07:35:18.094Z,11.30
2018-05-29T07:37:46.481Z,12.10
2018-05-29T07:40:16.463Z,11.68
2018-05-29T07:42:44.792Z,11.10
2018-05-29T07:45:16.646Z,9.95
2018-05-29T07:47:44.876Z,12.37
2018-05-29T07:50:13.152Z,11.20
2018-05-29T07:52:41.480Z,10.60
2018-05-29T07:55:10.559Z,11.95
2018-05-29T07:57:38.828Z,10.98
2018-05-29T08:00:08.390Z,13.20
2018-05-29T08:02:36.672Z,12.40
2018-05-29T08:05:04.981Z,12.23
2018-05-29T08:07:33.310Z,14.05
2018-05-29T08:10:01.625Z,12.37
2018-05-29T08:12:30.006Z,11.90
2018-05-29T08:14:58.295Z,11.02
2018-05-29T08:17:26.551Z,12.63
2018-05-29T08:19:54.825Z,11.85
2018-05-29T08:22:23.104Z,12.13
2018-05-29T08:24:51.426Z,13.25
2018-05-29T08:27:20.476Z,12.70
2018-05-29T08:29:48.765Z,11.93
2018-05-29T08:32:17.151Z,16.62
2018-05-29T08:34:45.453Z,12.57
2018-05-29T08:37:14.463Z,11.05
2018-05-29T08:39:42.821Z,14.80
2018-05-29T08:42:11.074Z,11.05
2018-05-29T08:44:43.018Z,11.30
2018-05-29T08:47:11.342Z,12.95
2018-05-29T08:49:39.649Z,11.68
2018-05-29T08:52:07.896Z,10.13
2018-05-29T08:54:37.487Z,12.23
2018-05-29T08:57:05.856Z,12.05
2018-05-29T08:59:34.946Z,13.13
2018-05-29T09:02:03.180Z,10.82
2018-05-29T09:04:31.563Z,11.43
2018-05-29T09:06:59.845Z,15.73
2018-05-29T09:09:28.175Z,11.50
2018-05-29T09:11:56.554Z,14.80
2018-05-29T09:14:24.785Z,10.77
2018-05-29T09:16:53.445Z,12.98
2018-05-29T09:19:21.698Z,28.73
2018-05-29T09:21:50.040Z,11.75
2018-05-29T09:24:18.417Z,12.23
2018-05-29T09:26:46.712Z,12.55
2018-05-29T09:29:15.858Z,10.93
2018-05-29T09:31:44.601Z,10.52
2018-05-29T09:34:13.654Z,10.52
2018-05-29T09:36:41.930Z,10.35
2018-05-29T09:39:11.405Z,12.65
2018-05-29T09:41:40.416Z,10.63
2018-05-29T09:44:08.715Z,10.27
2018-05-29T09:46:37.072Z,11.75
2018-05-29T09:49:05.858Z,15.30
2018-05-29T09:51:34.152Z,12.63
2018-05-29T09:54:02.415Z,9.35
2018-05-29T09:56:31.615Z,10.45
2018-05-29T09:58:59.878Z,9.40
2018-05-29T10:01:28.358Z,9.38
2018-05-29T10:03:56.606Z,11.05
2018-05-29T10:06:24.879Z,9.05
2018-05-29T10:08:53.932Z,9.40
2018-05-29T10:11:22.239Z,8.90
2018-05-29T10:13:51.288Z,11.18
2018-05-29T10:16:19.564Z,9.48
2018-05-29T10:18:47.917Z,11.43
2018-05-29T10:21:17.086Z,11.77
2018-05-29T10:23:45.593Z,11.57
2018-05-29T10:26:13.913Z,9.20
2018-05-29T10:28:42.229Z,11.23
2018-05-29T10:31:11.273Z,10.82
2018-05-29T10:33:39.618Z,9.80
2018-05-29T10:36:07.897Z,10.48
2018-05-29T10:38:36.202Z,8.65
2018-05-29T10:41:04.417Z,9.85
2018-05-29T10:43:33.831Z,8.05
2018-05-29T10:46:02.954Z,7.72
2018-05-29T10:48:31.990Z,13.75
2018-05-29T10:51:00.248Z,7.15
2018-05-29T10:53:28.553Z,7.90
2018-05-29T10:55:56.922Z,9.18
2018-05-29T10:58:25.187Z,10.68
2018-05-29T11:00:53.511Z,7.30
2018-05-29T11:03:22.565Z,11.60
2018-05-29T11:05:50.925Z,9.93
2018-05-29T11:08:19.189Z,6.68
2018-05-29T11:10:47.476Z,7.72
2018-05-29T11:13:15.743Z,9.93
2018-05-29T11:15:44.000Z,8.95
2018-05-29T11:18:12.245Z,9.63
2018-05-29T11:20:40.649Z,8.82
2018-05-29T11:23:09.711Z,10.85
2018-05-29T11:25:38.007Z,8.50
2018-05-29T11:28:07.070Z,7.97
2018-05-29T11:30:35.329Z,9.30
2018-05-29T11:33:04.432Z,9.93
2018-05-29T11:35:32.688Z,10.43
2018-05-29T11:38:00.978Z,8.45
2018-05-29T11:40:30.515Z,11.23
2018-05-29T11:42:59.560Z,10.77
2018-05-29T11:45:28.630Z,11.98
2018-05-29T11:47:57.659Z,10.85
2018-05-29T11:50:25.957Z,9.52
2018-05-29T11:52:54.346Z,13.30
2018-05-29T11:55:22.716Z,9.23
2018-05-29T11:57:50.952Z,10.70
2018-05-29T12:00:20.528Z,8.55
2018-05-29T12:02:50.065Z,11.75
2018-05-29T12:05:18.380Z,7.00
2018-05-29T12:07:46.628Z,8.50
2018-05-29T12:10:14.954Z,7.90
2018-05-29T12:12:43.948Z,7.80
2018-05-29T12:15:13.020Z,12.10
2018-05-29T12:17:41.422Z,7.53
2018-05-29T12:20:10.518Z,8.70
2018-05-29T12:22:38.878Z,11.20
2018-05-29T12:25:07.944Z,8.87
2018-05-29T12:27:37.109Z,9.68
2018-05-29T12:30:06.165Z,8.23
2018-05-29T12:32:34.427Z,7.80
2018-05-29T12:35:03.845Z,8.75
2018-05-29T12:37:32.222Z,9.68
2018-05-29T12:40:01.249Z,7.32
2018-05-29T12:42:30.373Z,9.30
2018-05-29T12:44:59.575Z,10.88
2018-05-29T12:47:27.923Z,9.07
2018-05-29T12:49:57.223Z,8.20
2018-05-29T12:52:26.565Z,8.85
2018-05-29T12:54:54.833Z,8.90
2018-05-29T12:57:23.121Z,6.87
2018-05-29T12:59:51.398Z,7.40
2018-05-29T13:02:20.602Z,8.02
2018-05-29T13:04:49.004Z,9.93
2018-05-29T13:07:17.285Z,12.93
2018-05-29T13:09:46.336Z,11.43
2018-05-29T13:12:14.659Z,11.38
2018-05-29T13:14:43.729Z,12.70
2018-05-29T13:17:12.012Z,10.80
2018-05-29T13:19:40.281Z,7.97
2018-05-29T13:22:08.533Z,9.82
2018-05-29T13:24:36.834Z,7.37
2018-05-29T13:27:05.291Z,11.48
2018-05-29T13:29:34.784Z,10.05
2018-05-29T13:32:03.014Z,8.85
2018-05-29T13:34:31.326Z,8.07
2018-05-29T13:37:00.214Z,10.18
2018-05-29T13:39:28.543Z,8.32
2018-05-29T13:41:56.816Z,8.82
2018-05-29T13:44:25.056Z,5.70
2018-05-29T13:46:53.376Z,6.97
2018-05-29T13:49:21.659Z,7.95
2018-05-29T13:51:49.912Z,9.13
2018-05-29T13:54:19.581Z,9.75
2018-05-29T13:56:48.610Z,11.70
2018-05-29T13:59:16.852Z,8.23
2018-05-29T14:01:45.145Z,7.53
2018-05-29T14:04:13.403Z,7.18
2018-05-29T14:06:41.676Z,5.37
2018-05-29T14:09:09.981Z,5.78
2018-05-29T14:11:38.275Z,8.57
2018-05-29T14:14:06.565Z,7.95
2018-05-29T14:16:34.871Z,6.82
2018-05-29T14:19:03.899Z,6.25
2018-05-29T14:21:32.210Z,8.07
2018-05-29T14:24:00.473Z,5.73
2018-05-29T14:26:28.738Z,5.68
2018-05-29T14:28:58.720Z,6.47
2018-05-29T14:31:27.037Z,6.20
2018-05-29T14:33:56.234Z,5.20
2018-05-29T14:36:24.490Z,7.40
2018-05-29T14:38:53.577Z,5.75
2018-05-29T14:41:21.797Z,5.95
2018-05-29T14:43:51.101Z,4.80
2018-05-29T14:46:19.359Z,4.28
2018-05-29T14:48:47.650Z,6.75
2018-05-29T14:51:15.950Z,5.25
2018-05-29T14:53:44.308Z,8.70
2018-05-29T14:56:13.782Z,7.37
2018-05-29T14:58:42.188Z,7.75
2018-05-29T15:01:10.395Z,6.20
2018-05-29T15:03:39.449Z,4.97
2018-05-29T15:06:07.726Z,6.53
2018-05-29T15:08:35.983Z,6.55
2018-05-29T15:11:04.321Z,7.80
2018-05-29T15:13:34.542Z,9.88
2018-05-29T15:16:02.898Z,6.07
2018-05-29T15:18:31.148Z,6.50
2018-05-29T15:21:00.681Z,6.40
2018-05-29T15:23:30.082Z,5.77
2018-05-29T15:25:58.338Z,5.32
2018-05-29T15:28:26.603Z,4.95
2018-05-29T15:30:56.561Z,6.40
2018-05-29T15:33:25.747Z,6.25
2018-05-29T15:35:53.976Z,6.68
2018-05-29T15:38:22.271Z,4.12
2018-05-29T15:40:50.636Z,7.10
2018-05-29T15:43:20.100Z,4.10
2018-05-29T15:45:48.375Z,5.40
2018-05-29T15:48:17.924Z,4.20
2018-05-29T15:50:46.392Z,6.97
2018-05-29T15:53:14.906Z,6.30
2018-05-29T15:55:43.197Z,8.85
2018-05-29T15:58:11.553Z,7.93
2018-05-29T16:00:39.829Z,4.10
2018-05-29T16:03:08.221Z,6.90
2018-05-29T16:05:36.508Z,4.87
2018-05-29T16:08:04.768Z,6.75
2018-05-29T16:10:33.555Z,6.07
2018-05-29T16:13:01.874Z,5.45
2018-05-29T16:15:30.889Z,4.85
2018-05-29T16:17:59.907Z,3.28
2018-05-29T16:20:29.137Z,4.55
2018-05-29T16:22:57.382Z,5.82
2018-05-29T16:25:25.667Z,6.15
2018-05-29T16:27:53.940Z,3.95
2018-05-29T16:30:22.218Z,6.30
2018-05-29T16:32:50.484Z,10.25
2018-05-29T16:35:18.822Z,6.03
2018-05-29T16:37:47.858Z,7.47
2018-05-29T16:40:17.396Z,3.78
2018-05-29T16:42:47.005Z,5.10
2018-05-29T16:45:19.073Z,5.15
2018-05-29T16:47:47.441Z,6.93
2018-05-29T16:50:15.772Z,5.47
2018-05-29T16:52:45.306Z,5.70
2018-05-29T16:55:13.536Z,10.45
2018-05-29T16:57:41.874Z,6.35
2018-05-29T17:00:10.180Z,6.68
2018-05-29T17:02:39.371Z,8.02
2018-05-29T17:05:09.589Z,5.05
2018-05-29T17:07:38.325Z,6.62
2018-05-29T17:10:06.673Z,7.68
2018-05-29T17:12:35.059Z,6.53
2018-05-29T17:15:04.141Z,5.80
2018-05-29T17:17:33.399Z,6.30
2018-05-29T17:20:02.919Z,6.20
2018-05-29T17:22:31.191Z,5.60
2018-05-29T17:24:59.461Z,4.50
2018-05-29T17:27:27.769Z,4.95
2018-05-29T17:29:56.810Z,6.20
2018-05-29T17:32:25.066Z,6.22
2018-05-29T17:34:53.388Z,5.32
2018-05-29T17:37:21.755Z,6.47
2018-05-29T17:39:50.065Z,5.03
2018-05-29T17:42:18.295Z,6.07
2018-05-29T17:44:46.679Z,7.05
2018-05-29T17:47:14.997Z,7.63
2018-05-29T17:49:43.224Z,6.55
2018-05-29T17:52:11.524Z,7.15
2018-05-29T17:54:39.779Z,5.70
2018-05-29T17:57:08.055Z,6.23
2018-05-29T17:59:37.608Z,4.37
2018-05-29T18:02:06.797Z,6.10
2018-05-29T18:04:35.152Z,5.32
2018-05-29T18:07:03.436Z,5.50
2018-05-29T18:09:31.822Z,4.72
2018-05-29T18:12:00.188Z,9.15
2018-05-29T18:14:29.383Z,5.93
2018-05-29T18:16:57.659Z,5.12
2018-05-29T18:19:25.941Z,6.22
2018-05-29T18:21:55.548Z,9.50
2018-05-29T18:24:24.609Z,6.55
2018-05-29T18:26:52.905Z,6.50
2018-05-29T18:29:22.062Z,6.20
2018-05-29T18:31:51.095Z,5.30
2018-05-29T18:34:19.413Z,6.40
2018-05-29T18:36:51.359Z,4.65
2018-05-29T18:39:20.315Z,5.63
2018-05-29T18:41:48.617Z,7.15
2018-05-29T18:44:16.903Z,6.60
2018-05-29T18:46:45.253Z,6.90
2018-05-29T18:49:13.556Z,5.95
2018-05-29T18:51:41.861Z,5.47
2018-05-29T18:54:11.753Z,6.30
2018-05-29T18:56:40.161Z,6.07
2018-05-29T18:59:09.257Z,7.10
2018-05-29T19:01:38.347Z,6.85
2018-05-29T19:04:08.345Z,7.00
2018-05-29T19:06:36.751Z,7.22
2018-05-29T19:09:06.681Z,6.03
2018-05-29T19:11:35.043Z,5.30
2018-05-29T19:14:04.115Z,9.73
2018-05-29T19:16:33.985Z,8.68
2018-05-29T19:19:02.296Z,6.75
2018-05-29T19:21:30.634Z,10.18
2018-05-29T19:23:58.948Z,10.43
2018-05-29T19:26:27.241Z,6.05
2018-05-29T19:28:55.569Z,4.70
2018-05-29T19:31:23.828Z,8.25
2018-05-29T19:33:52.126Z,7.45
2018-05-29T19:36:20.448Z,6.43
2018-05-29T19:38:49.469Z,9.63
2018-05-29T19:41:17.805Z,8.75
2018-05-29T19:43:47.626Z,8.27
2018-05-29T19:46:15.900Z,7.00
2018-05-29T19:48:44.185Z,7.07
2018-05-29T19:51:12.576Z,12.13
2018-05-29T19:53:41.613Z,6.25
2018-05-29T19:56:09.943Z,7.20
2018-05-29T19:58:39.030Z,6.93
2018-05-29T20:01:07.500Z,5.90
2018-05-29T20:03:35.885Z,6.65
2018-05-29T20:06:04.169Z,7.03
2018-05-29T20:08:33.364Z,8.68
2018-05-29T20:11:01.639Z,6.30
2018-05-29T20:13:29.944Z,5.93
2018-05-29T20:15:59.031Z,6.75
2018-05-29T20:18:28.055Z,7.77
2018-05-29T20:20:56.376Z,8.63
2018-05-29T20:23:24.841Z,6.50
2018-05-29T20:25:53.710Z,6.62
2018-05-29T20:28:21.995Z,6.60
2018-05-29T20:30:50.264Z,8.43
2018-05-29T20:33:18.666Z,9.77
2018-05-29T20:35:46.981Z,6.15
2018-05-29T20:38:15.351Z,6.43
2018-05-29T20:40:44.393Z,10.75
2018-05-29T20:43:12.692Z,7.30
2018-05-29T20:45:40.983Z,6.10
2018-05-29T20:48:10.774Z,5.40
2018-05-29T20:50:39.078Z,7.25
2018-05-29T20:53:08.245Z,7.70
2018-05-29T20:55:36.571Z,6.28
2018-05-29T20:58:05.716Z,7.82
2018-05-29T21:00:34.036Z,7.15
2018-05-29T21:03:03.092Z,5.50
2018-05-29T21:05:31.365Z,7.10
2018-05-29T21:07:59.713Z,10.95
2018-05-29T21:10:27.996Z,8.13
2018-05-29T21:12:56.263Z,6.85
2018-05-29T21:15:24.592Z,5.62
2018-05-29T21:17:52.862Z,6.18
2018-05-29T21:20:21.172Z,8.13
2018-05-29T21:22:51.120Z,6.55
2018-05-29T21:25:19.392Z,7.75
2018-05-29T21:27:47.658Z,6.57
2018-05-29T21:30:15.942Z,7.70
2018-05-29T21:32:44.212Z,6.60
2018-05-29T21:35:12.551Z,9.40
2018-05-29T21:37:40.836Z,7.07
2018-05-29T21:40:09.171Z,8.52
2018-05-29T21:42:37.470Z,7.90
2018-05-29T21:45:05.716Z,8.80
2018-05-29T21:47:34.123Z,6.78
2018-05-29T21:50:05.037Z,7.80
2018-05-29T21:52:33.370Z,5.50
2018-05-29T21:55:02.404Z,8.90
2018-05-29T21:57:30.769Z,6.62
2018-05-29T21:59:59.026Z,10.13
2018-05-29T22:02:27.330Z,10.02
2018-05-29T22:04:55.741Z,11.75
2018-05-29T22:07:23.966Z,9.20
2018-05-29T22:09:52.293Z,5.72
2018-05-29T22:12:20.559Z,5.83
2018-05-29T22:14:48.994Z,8.45
2018-05-29T22:17:17.215Z,6.45
2018-05-29T22:19:45.497Z,5.22
2018-05-29T22:22:13.759Z,5.97
2018-05-29T22:24:42.025Z,8.52
2018-05-29T22:27:10.305Z,8.20
2018-05-29T22:29:38.577Z,6.22
2018-05-29T22:32:08.021Z,6.35
2018-05-29T22:34:36.308Z,6.97
2018-05-29T22:37:08.244Z,7.85
2018-05-29T22:39:36.529Z,9.77
2018-05-29T22:42:05.590Z,6.57
2018-05-29T22:44:33.960Z,5.25
2018-05-29T22:47:02.233Z,5.03
2018-05-29T22:49:31.417Z,8.50
2018-05-29T22:51:59.715Z,4.50
2018-05-29T22:54:28.110Z,5.78
2018-05-29T22:56:56.368Z,4.45
2018-05-29T22:59:24.676Z,8.63
2018-05-29T23:01:52.921Z,6.93
2018-05-29T23:04:21.420Z,7.10
2018-05-29T23:06:50.517Z,7.30
2018-05-29T23:09:18.757Z,4.95
2018-05-29T23:11:47.065Z,6.85
2018-05-29T23:14:15.342Z,8.25
2018-05-29T23:16:43.713Z,6.37
2018-05-29T23:19:11.980Z,5.40
2018-05-29T23:21:40.283Z,9.07
2018-05-29T23:24:08.580Z,6.22
2018-05-29T23:26:38.074Z,8.38
2018-05-29T23:29:07.470Z,5.23
2018-05-29T23:31:37.063Z,9.63
2018-05-29T23:34:05.320Z,5.90
2018-05-29T23:36:33.575Z,5.62
2018-05-29T23:39:01.870Z,6.30
2018-05-29T23:41:30.193Z,7.95
2018-05-29T23:43:59.022Z,5.47
2018-05-29T23:46:27.269Z,7.28
2018-05-29T23:48:56.326Z,8.38
2018-05-29T23:51:24.613Z,6.40
2018-05-29T23:53:52.962Z,6.57
2018-05-29T23:56:21.225Z,5.57
2018-05-29T23:58:51.568Z,6.90
